Brookline, New Hampshire
Current Conditions -  °F | °C
As of 10:51 AM on Friday 24 Oct 2014 (Local Time) from KASH Reporting Station
Light Rain Light Rain  
Wind Chill: 10°   Ceiling: 1600
Heat Index: 10°   Visibility: 10mi
Dew Point:   Wind: 14mph
Humidity: 83%   Direction: 320°NW
Pressure: 29.73"   Gusts: NA
Location:  42.73°N, 71.66°W
Report Text: KASH 241451Z 32012KT 10SM -RA BKN016 BKN026 10/07 A2973 RMK AO2 50004 T01000072 BKN V SCT RAB51 P0000 SLP314 $
Loading
Personal Weather Stations






























Interactive Weather Map
Tropical Storm Tracking
New forecast layout! Learn more

10-Day Weather Forecast

Advertisements
Track Severe Weather on mobile